Time;durP1;ratioP1;P1;durP2;ratioP2;P2;SDS_P1;SDS_P2;PMS_P1;PMS_P2;Temp;Humidity;BMP_temperature;BMP_pressure;BME280_temperature;BME280_humidity;BME280_pressure;Samples;Min_cycle;Max_cycle;Signal;HPM_P1;HPM_P2
2020/12/06 00:01:05;;;;;;;23.10;14.20;;;;;;;12.48;41.34;100263.06;4993393;28;20477;-77
2020/12/06 00:03:34;;;;;;;15.80;14.10;;;;;;;12.52;41.51;100263.19;4993463;28;20025;-77
2020/12/06 00:06:00;;;;;;;17.60;13.30;;;;;;;12.47;41.26;100265.00;4993292;28;20113;-77
2020/12/06 00:08:26;;;;;;;22.03;13.37;;;;;;;12.51;41.11;100265.13;4993578;28;20524;-77
2020/12/06 00:10:52;;;;;;;15.17;13.37;;;;;;;12.45;41.13;100266.47;4993380;28;20050;-77
2020/12/06 00:13:17;;;;;;;16.70;12.67;;;;;;;12.39;41.30;100262.31;4993253;28;20097;-78
2020/12/06 00:15:43;;;;;;;16.20;13.05;;;;;;;12.41;41.43;100269.09;4993267;28;20113;-77
2020/12/06 00:18:09;;;;;;;16.70;13.10;;;;;;;12.44;41.31;100262.13;4993517;28;20061;-78
2020/12/06 00:20:34;;;;;;;16.93;13.00;;;;;;;12.42;41.45;100256.19;4993217;28;20030;-77
2020/12/06 00:23:00;;;;;;;17.73;12.77;;;;;;;12.44;41.33;100253.91;4993157;28;20109;-77
2020/12/06 00:25:26;;;;;;;15.93;11.87;;;;;;;12.30;41.66;100256.13;4993149;28;20022;-77
2020/12/06 00:27:52;;;;;;;17.87;11.67;;;;;;;12.35;41.49;100255.94;4993071;28;20029;-77
2020/12/06 00:30:18;;;;;;;18.73;12.53;;;;;;;12.35;41.55;100253.19;4993148;28;20045;-78
2020/12/06 00:32:44;;;;;;;25.83;13.23;;;;;;;12.37;41.36;100243.47;4993327;28;20035;-77
2020/12/06 00:35:10;;;;;;;16.03;11.93;;;;;;;12.38;41.34;100244.28;4995121;28;20018;-77
2020/12/06 00:37:39;;;;;;;13.97;10.40;;;;;;;12.36;41.54;100246.56;4996999;28;20077;-77
2020/12/06 00:40:09;;;;;;;12.63;10.70;;;;;;;12.35;41.48;100242.22;4997164;28;20030;-76
2020/12/06 00:42:38;;;;;;;14.60;12.25;;;;;;;12.33;41.60;100237.09;4996217;28;20035;-77
2020/12/06 00:45:05;;;;;;;14.87;11.47;;;;;;;12.36;41.18;100247.38;4997044;28;20472;-76
2020/12/06 00:47:31;;;;;;;15.25;12.52;;;;;;;12.35;41.27;100244.97;4997147;28;20034;-77
2020/12/06 00:49:56;;;;;;;13.77;11.77;;;;;;;12.31;41.51;100247.56;4996895;28;20484;-77
2020/12/06 00:52:22;;;;;;;13.87;11.20;;;;;;;12.03;42.18;100249.28;4997165;28;20023;-76
2020/12/06 00:54:47;;;;;;;14.53;11.97;;;;;;;11.98;42.24;100247.53;4996834;28;20492;-76
2020/12/06 00:57:13;;;;;;;15.88;12.43;;;;;;;11.98;42.37;100250.28;4996793;28;20030;-77
2020/12/06 00:59:39;;;;;;;15.47;12.47;;;;;;;11.83;42.75;100245.38;4996783;28;20041;-76
2020/12/06 01:02:06;;;;;;;13.90;11.27;;;;;;;11.68;42.96;100244.81;4996770;28;20036;-77
2020/12/06 01:04:32;;;;;;;15.40;12.27;;;;;;;11.64;42.89;100249.34;4996744;28;20085;-77
2020/12/06 01:06:59;;;;;;;22.03;13.70;;;;;;;11.60;43.15;100251.13;4996656;28;20022;-76
2020/12/06 01:09:25;;;;;;;15.47;11.40;;;;;;;11.61;43.23;100257.41;4996510;28;20034;-78
2020/12/06 01:11:51;;;;;;;16.77;11.87;;;;;;;11.60;43.00;100253.88;4996541;28;20022;-77
2020/12/06 01:14:16;;;;;;;15.57;11.20;;;;;;;11.57;43.24;100249.09;4996473;28;20026;-77
2020/12/06 01:16:42;;;;;;;19.00;12.13;;;;;;;11.61;43.07;100257.41;4996382;28;20026;-77
2020/12/06 01:19:08;;;;;;;14.07;11.17;;;;;;;11.65;43.16;100252.91;4996425;28;20026;-77
2020/12/06 01:21:33;;;;;;;14.30;10.97;;;;;;;11.69;43.13;100248.34;4996367;28;20041;-77
2020/12/06 01:23:59;;;;;;;13.67;10.20;;;;;;;11.65;42.98;100248.22;4996573;28;20033;-77
2020/12/06 01:26:24;;;;;;;15.73;11.50;;;;;;;11.63;43.18;100253.19;4996304;28;20032;-77
2020/12/06 01:28:50;;;;;;;13.43;9.73;;;;;;;11.62;43.04;100242.59;4996182;28;20034;-77
2020/12/06 01:31:15;;;;;;;14.07;10.90;;;;;;;11.44;43.75;100249.31;4996175;28;20034;-77
2020/12/06 01:33:41;;;;;;;13.87;11.00;;;;;;;11.50;43.43;100251.53;4996207;28;20022;-77
2020/12/06 01:36:07;;;;;;;14.90;11.53;;;;;;;11.55;43.35;100254.06;4996041;28;20084;-77
2020/12/06 01:38:33;;;;;;;13.63;10.23;;;;;;;11.40;43.68;100249.16;4995965;28;20092;-77
2020/12/06 01:40:59;;;;;;;17.63;12.67;;;;;;;11.50;43.49;100248.78;4995997;28;20058;-78
2020/12/06 01:43:25;;;;;;;11.90;9.97;;;;;;;11.53;43.16;100255.53;4995992;28;20413;-77
2020/12/06 01:45:50;;;;;;;12.17;9.90;;;;;;;11.50;43.49;100254.28;4995436;28;20469;-78
2020/12/06 01:48:16;;;;;;;18.47;11.20;;;;;;;11.49;43.35;100255.41;4978182;28;20477;-77
2020/12/06 01:50:42;;;;;;;15.27;10.63;;;;;;;11.39;43.48;100253.03;4995828;28;20062;-77
2020/12/06 01:53:08;;;;;;;15.83;10.80;;;;;;;11.39;43.40;100255.75;4995682;28;20031;-77
2020/12/06 01:55:34;;;;;;;13.50;10.30;;;;;;;11.39;43.53;100250.28;4995689;28;20156;-77
2020/12/06 01:58:08;;;;;;;15.50;10.90;;;;;;;11.36;43.52;100254.50;4995964;28;20393;-77
2020/12/06 02:00:34;;;;;;;13.30;11.23;;;;;;;11.31;43.70;100253.88;4995620;28;20027;-77
2020/12/06 02:03:00;;;;;;;17.63;10.60;;;;;;;11.32;43.48;100269.16;4995600;28;20057;-78
2020/12/06 02:05:28;;;;;;;15.57;11.60;;;;;;;11.34;43.40;100258.72;4995537;28;20492;-77
2020/12/06 02:07:57;;;;;;;15.50;10.73;;;;;;;11.59;42.86;100263.22;4995416;28;20358;-77
2020/12/06 02:10:25;;;;;;;13.98;10.70;;;;;;;11.89;42.13;100260.50;4995450;28;20077;-77
2020/12/06 02:12:52;;;;;;;15.10;10.57;;;;;;;11.91;42.03;100264.47;4995485;28;20523;-78
2020/12/06 02:15:19;;;;;;;13.57;10.27;;;;;;;11.94;41.83;100271.25;4995093;28;20030;-77
2020/12/06 02:17:44;;;;;;;15.17;10.73;;;;;;;11.98;41.78;100274.13;4995336;28;20040;-80
2020/12/06 02:20:10;;;;;;;14.23;10.40;;;;;;;11.78;42.09;100275.66;4995319;28;20034;-79
2020/12/06 02:22:35;;;;;;;16.20;11.57;;;;;;;11.77;42.36;100274.06;4995252;28;20030;-79
2020/12/06 02:25:01;;;;;;;17.30;11.20;;;;;;;11.79;42.15;100269.03;4995163;28;20058;-79
2020/12/06 02:27:27;;;;;;;15.30;9.47;;;;;;;11.63;42.38;100264.16;4995183;28;20036;-80
2020/12/06 02:29:52;;;;;;;16.50;10.50;;;;;;;11.83;41.87;100275.50;4977551;28;20034;-80
2020/12/06 02:32:18;;;;;;;16.03;10.27;;;;;;;11.68;42.21;100276.84;4995055;28;20096;-80
2020/12/06 02:34:43;;;;;;;15.33;10.53;;;;;;;11.64;42.23;100276.72;4995007;28;20030;-80
2020/12/06 02:37:09;;;;;;;14.67;10.73;;;;;;;11.53;42.46;100272.75;4994844;28;20050;-79
2020/12/06 02:39:35;;;;;;;15.10;10.50;;;;;;;11.55;42.37;100281.41;4994921;28;20038;-80
2020/12/06 02:42:00;;;;;;;14.60;10.73;;;;;;;11.59;42.12;100276.91;4994888;28;20122;-80
2020/12/06 02:44:26;;;;;;;14.70;9.50;;;;;;;11.60;42.31;100275.78;4994857;28;20531;-80
2020/12/06 02:46:51;;;;;;;13.53;9.97;;;;;;;11.57;42.12;100275.66;4994749;28;20398;-80
2020/12/06 02:49:17;;;;;;;13.17;9.40;;;;;;;11.57;42.17;100281.13;4994662;28;20389;-79
2020/12/06 02:51:42;;;;;;;13.73;10.20;;;;;;;11.54;42.28;100281.75;4994712;28;20484;-79
2020/12/06 02:54:08;;;;;;;13.17;9.50;;;;;;;11.45;42.49;100281.00;4994664;28;20098;-79
2020/12/06 02:56:34;;;;;;;18.67;11.33;;;;;;;11.48;42.56;100286.59;4994495;28;20030;-80
2020/12/06 02:58:59;;;;;;;12.77;9.40;;;;;;;11.46;42.59;100279.88;4993490;28;20030;-80
2020/12/06 03:01:31;;;;;;;12.50;9.70;;;;;;;11.42;42.54;100279.75;4994374;28;20101;-80
2020/12/06 03:03:58;;;;;;;15.27;9.97;;;;;;;11.45;42.39;100284.53;4994407;28;20105;-79
2020/12/06 03:06:24;;;;;;;17.13;9.90;;;;;;;11.38;42.69;100273.31;4994467;28;20021;-79
2020/12/06 03:08:49;;;;;;;10.30;8.47;;;;;;;11.38;42.54;100278.78;4994446;28;20022;-79
2020/12/06 03:11:15;;;;;;;13.23;8.93;;;;;;;11.34;42.62;100280.59;4994303;28;20057;-79
2020/12/06 03:13:41;;;;;;;14.27;8.13;;;;;;;11.31;42.78;100273.81;4994273;28;20393;-80
2020/12/06 03:16:06;;;;;;;11.03;8.10;;;;;;;11.38;42.45;100278.78;4994225;28;20023;-79
2020/12/06 03:18:32;;;;;;;11.73;8.27;;;;;;;11.34;42.54;100275.13;4994174;28;20410;-80
2020/12/06 03:20:58;;;;;;;10.50;8.43;;;;;;;11.37;42.56;100279.91;4994095;28;20121;-80
2020/12/06 03:23:24;;;;;;;11.83;8.10;;;;;;;11.34;42.56;100277.84;4994107;28;20023;-79
2020/12/06 03:25:50;;;;;;;12.87;8.90;;;;;;;11.31;42.75;100273.03;4994084;28;20029;-79
2020/12/06 03:28:15;;;;;;;10.17;8.03;;;;;;;11.30;42.82;100287.84;4993887;28;20029;-80
2020/12/06 03:30:41;;;;;;;12.57;8.57;;;;;;;11.33;42.72;100279.75;4994035;28;20023;-79
2020/12/06 03:33:06;;;;;;;12.00;8.57;;;;;;;11.36;42.64;100286.53;4994022;28;20026;-80
2020/12/06 03:35:32;;;;;;;11.63;8.37;;;;;;;11.35;42.70;100288.47;4993873;28;20030;-80
2020/12/06 03:37:57;;;;;;;14.87;8.90;;;;;;;11.32;42.70;100291.03;4993740;28;20046;-80
2020/12/06 03:40:23;;;;;;;10.57;8.43;;;;;;;11.28;42.65;100288.16;4993834;28;20073;-80
2020/12/06 03:42:53;;;;;;;13.13;8.73;;;;;;;11.29;42.73;100292.50;4993780;28;20034;-80
2020/12/06 03:45:19;;;;;;;11.52;8.52;;;;;;;11.23;42.88;100287.53;4993689;28;20041;-80
2020/12/06 03:47:45;;;;;;;11.23;8.23;;;;;;;11.26;42.99;100298.66;4993438;28;20030;-80
2020/12/06 03:50:11;;;;;;;11.87;8.47;;;;;;;11.25;42.49;100299.75;4993616;28;20109;-80
2020/12/06 03:52:36;;;;;;;12.13;7.87;;;;;;;11.21;42.90;100295.28;4993639;28;20532;-79
2020/12/06 03:55:03;;;;;;;10.67;8.03;;;;;;;11.22;42.85;100302.34;4993458;28;20026;-79
2020/12/06 03:57:28;;;;;;;10.77;7.70;;;;;;;11.25;42.77;100305.22;4993519;28;20113;-79
2020/12/06 03:59:54;;;;;;;11.40;8.27;;;;;;;11.22;42.65;100300.41;4993491;28;20117;-79
2020/12/06 04:02:20;;;;;;;18.03;9.13;;;;;;;11.11;42.96;100299.97;4993523;28;20042;-79
2020/12/06 04:04:45;;;;;;;12.37;8.20;;;;;;;10.79;43.68;100300.53;4993469;28;20042;-79
2020/12/06 04:07:11;;;;;;;12.77;9.63;;;;;;;10.83;43.79;100301.50;4993456;28;20030;-79
2020/12/06 04:09:37;;;;;;;13.27;9.07;;;;;;;10.84;43.75;100303.09;4992934;28;20092;-79
2020/12/06 04:12:03;;;;;;;12.10;8.57;;;;;;;10.75;43.90;100302.31;4993354;28;20632;-79
2020/12/06 04:14:28;;;;;;;12.27;9.00;;;;;;;10.75;43.76;100305.84;4993304;28;20042;-80
2020/12/06 04:16:54;;;;;;;12.40;8.57;;;;;;;10.77;43.88;100302.78;4993576;28;20033;-80
2020/12/06 04:19:19;;;;;;;12.40;9.07;;;;;;;10.60;44.38;100300.09;4993445;28;20362;-79
2020/12/06 04:21:45;;;;;;;12.97;8.90;;;;;;;10.60;44.15;100302.84;4993258;28;20469;-80
2020/12/06 04:24:13;;;;;;;13.17;8.80;;;;;;;10.63;44.24;100299.44;4993298;28;20393;-80
2020/12/06 04:26:39;;;;;;;13.47;9.43;;;;;;;10.66;44.39;100296.88;4993230;28;20050;-79
2020/12/06 04:29:05;;;;;;;12.17;8.30;;;;;;;11.01;43.32;100297.59;4993429;28;20113;-79
2020/12/06 04:31:31;;;;;;;10.83;8.17;;;;;;;10.73;43.99;100305.38;4993244;28;20580;-79
2020/12/06 04:33:56;;;;;;;12.37;8.77;;;;;;;10.67;44.16;100303.94;4993207;28;20030;-79
2020/12/06 04:36:22;;;;;;;15.60;8.90;;;;;;;10.65;44.17;100305.38;4993170;28;20065;-79
2020/12/06 04:38:47;;;;;;;11.73;8.33;;;;;;;10.52;44.38;100307.97;4992567;28;20054;-80
2020/12/06 04:41:13;;;;;;;11.17;8.83;;;;;;;10.35;45.13;100307.16;4993028;28;20030;-79
2020/12/06 04:43:43;;;;;;;11.77;8.40;;;;;;;10.32;44.82;100305.91;4993010;28;20045;-79
2020/12/06 04:46:09;;;;;;;15.27;8.63;;;;;;;10.55;44.28;100312.78;4993081;28;20053;-79
2020/12/06 04:49:03;;;;;;;12.57;8.80;;;;;;;10.56;44.34;100308.13;4993042;28;20039;-79
2020/12/06 04:51:37;;;;;;;10.30;8.70;;;;;;;10.57;44.15;100310.53;4993004;28;20081;-79
2020/12/06 04:54:06;;;;;;;13.67;9.13;;;;;;;10.61;44.03;100307.16;4992994;28;20030;-79
2020/12/06 04:56:31;;;;;;;13.93;9.53;;;;;;;10.60;43.98;100303.63;4992979;28;20026;-79
2020/12/06 04:59:02;;;;;;;13.23;9.77;;;;;;;10.57;44.09;100305.06;4993055;28;20432;-79
2020/12/06 05:01:33;;;;;;;14.83;10.20;;;;;;;10.56;43.91;100306.19;4992965;28;20058;-79
2020/12/06 05:04:08;;;;;;;14.53;9.80;;;;;;;10.59;44.04;100307.50;4993228;28;20026;-79
2020/12/06 05:06:37;;;;;;;14.13;9.77;;;;;;;10.62;44.02;100312.31;4993141;28;20034;-79
2020/12/06 05:09:07;;;;;;;16.07;10.30;;;;;;;10.57;43.84;100316.00;4992807;28;20456;-79
2020/12/06 05:11:34;;;;;;;14.70;9.40;;;;;;;10.54;44.24;100305.72;4992901;28;20026;-80
2020/12/06 05:14:00;;;;;;;14.17;9.90;;;;;;;10.56;44.13;100308.13;4992864;28;20053;-79
2020/12/06 05:16:26;;;;;;;11.60;9.37;;;;;;;10.55;43.83;100312.78;4992734;28;20066;-79
2020/12/06 05:18:52;;;;;;;13.03;9.17;;;;;;;10.44;44.38;100308.78;4992749;28;20032;-79
2020/12/06 05:21:18;;;;;;;14.50;9.10;;;;;;;10.52;44.10;100309.91;4993311;28;20034;-80
2020/12/06 05:23:43;;;;;;;15.47;10.60;;;;;;;10.41;44.21;100311.34;4996426;28;20513;-79
2020/12/06 05:26:09;;;;;;;14.60;10.73;;;;;;;10.30;44.62;100308.16;4996379;28;20026;-79
2020/12/06 05:28:35;;;;;;;13.80;10.00;;;;;;;10.24;44.62;100312.97;4996486;28;20086;-79
2020/12/06 05:31:02;;;;;;;13.77;10.07;;;;;;;10.29;44.52;100312.00;4996249;28;20026;-79
2020/12/06 05:33:29;;;;;;;11.13;8.90;;;;;;;10.14;45.00;100313.25;4996161;28;20034;-79
2020/12/06 05:35:59;;;;;;;16.17;9.50;;;;;;;10.04;45.25;100310.81;4996200;28;20030;-79
2020/12/06 05:38:25;;;;;;;13.17;9.97;;;;;;;10.30;44.45;100308.16;4995909;28;20077;-79
2020/12/06 05:40:54;;;;;;;15.80;9.23;;;;;;;10.13;44.66;100311.66;4995986;28;20030;-79
2020/12/06 05:43:26;;;;;;;15.00;9.27;;;;;;;10.05;45.08;100320.63;4978555;28;20381;-79
2020/12/06 05:46:04;;;;;;;14.03;8.87;;;;;;;10.17;44.75;100322.72;4996057;28;20489;-79
2020/12/06 05:48:31;;;;;;;13.43;9.60;;;;;;;10.29;44.39;100320.19;4995888;28;20058;-79
2020/12/06 05:50:56;;;;;;;13.13;8.50;;;;;;;10.32;44.37;100325.00;4996083;28;20093;-80
2020/12/06 05:53:23;;;;;;;13.73;9.10;;;;;;;10.27;44.43;100319.69;4995937;28;20477;-79
2020/12/06 05:55:52;;;;;;;13.87;8.47;;;;;;;10.28;44.44;100319.41;4995819;28;20026;-79
2020/12/06 05:58:18;;;;;;;12.50;9.23;;;;;;;10.26;44.44;100320.81;4995656;28;20042;-79
2020/12/06 06:00:45;;;;;;;12.50;8.43;;;;;;;10.22;44.59;100325.31;4995692;28;20061;-79
2020/12/06 06:03:11;;;;;;;14.37;9.50;;;;;;;10.27;44.31;100316.97;4995905;28;20023;-79
2020/12/06 06:05:41;;;;;;;12.53;8.97;;;;;;;10.26;44.31;100320.81;4995671;28;20022;-79
2020/12/06 06:08:08;;;;;;;14.13;8.93;;;;;;;10.24;44.34;100323.09;4995800;28;20417;-79
2020/12/06 06:10:34;;;;;;;15.40;10.43;;;;;;;10.50;43.70;100314.88;4995532;28;20162;-79
2020/12/06 06:13:02;;;;;;;18.47;10.60;;;;;;;10.42;43.68;100311.03;4995546;28;20041;-79
2020/12/06 06:15:30;;;;;;;14.70;9.83;;;;;;;10.22;44.15;100315.22;4995407;28;20033;-79
2020/12/06 06:17:57;;;;;;;15.37;9.93;;;;;;;10.27;44.17;100311.50;4995405;28;20089;-79
2020/12/06 06:20:23;;;;;;;15.17;9.97;;;;;;;10.25;44.13;100320.03;4995391;28;20026;-79
2020/12/06 06:22:50;;;;;;;15.90;10.73;;;;;;;10.13;44.48;100313.59;4995331;28;20030;-80
2020/12/06 06:25:17;;;;;;;18.17;11.13;;;;;;;10.09;44.40;100320.78;4995594;28;20421;-79
2020/12/06 06:27:42;;;;;;;16.90;11.30;;;;;;;10.00;44.64;100323.50;4995194;28;20030;-79
2020/12/06 06:30:10;;;;;;;17.50;11.27;;;;;;;9.95;44.63;100326.38;4995041;28;20026;-78
2020/12/06 06:32:37;;;;;;;18.07;11.40;;;;;;;9.74;44.98;100320.72;4994856;28;20037;-80
2020/12/06 06:35:05;;;;;;;16.73;11.70;;;;;;;9.77;44.85;100325.56;4995045;28;20027;-79
2020/12/06 06:37:33;;;;;;;17.83;11.10;;;;;;;9.80;44.73;100324.09;4994854;28;20054;-80
2020/12/06 06:40:08;;;;;;;14.90;11.37;;;;;;;9.93;44.61;100318.53;4994987;28;20030;-79
2020/12/06 06:42:36;;;;;;;15.07;10.60;;;;;;;9.76;45.09;100323.16;4995006;28;20654;-80
2020/12/06 06:45:12;;;;;;;20.57;10.90;;;;;;;9.48;45.51;100325.31;4995175;28;20048;-79
2020/12/06 06:47:40;;;;;;;17.93;11.37;;;;;;;9.18;46.36;100330.47;4994749;28;20026;-79
2020/12/06 06:50:11;;;;;;;19.33;11.63;;;;;;;9.43;45.68;100328.97;4994970;28;20031;-79
2020/12/06 06:52:41;;;;;;;18.63;13.00;;;;;;;9.37;45.56;100339.22;4994748;28;20033;-79
2020/12/06 06:55:07;;;;;;;16.60;10.70;;;;;;;9.35;45.67;100338.72;4994718;28;20027;-79
2020/12/06 06:57:33;;;;;;;18.27;11.50;;;;;;;9.54;45.07;100330.31;4994646;28;20026;-79
2020/12/06 07:00:01;;;;;;;18.17;13.10;;;;;;;9.50;45.30;100332.03;4994580;28;20027;-79
2020/12/06 07:02:47;;;;;;;19.60;12.27;;;;;;;9.51;44.99;100332.84;4994608;28;20031;-79
2020/12/06 07:05:12;;;;;;;18.10;12.03;;;;;;;9.59;45.02;100335.59;4993352;28;20039;-80
2020/12/06 07:07:42;;;;;;;19.53;12.63;;;;;;;9.64;44.83;100334.66;4993216;28;20421;-80
2020/12/06 07:10:10;;;;;;;20.70;12.93;;;;;;;9.61;44.64;100340.75;4993379;28;20388;-80
2020/12/06 07:12:47;;;;;;;20.87;12.50;;;;;;;9.50;44.70;100336.69;4994030;28;20088;-81
2020/12/06 07:15:14;;;;;;;19.73;12.67;;;;;;;9.53;44.67;100347.00;4994362;28;20069;-79
2020/12/06 07:17:41;;;;;;;21.27;13.17;;;;;;;9.59;44.64;100343.78;4994223;28;20065;-79
2020/12/06 07:20:08;;;;;;;20.37;13.37;;;;;;;9.40;44.62;100348.69;4994423;28;20110;-78
2020/12/06 07:22:34;;;;;;;19.33;12.70;;;;;;;9.24;45.10;100353.75;4994061;28;20023;-86
2020/12/06 07:25:01;;;;;;;23.10;13.17;;;;;;;9.03;45.64;100347.22;4994157;28;20030;-77
2020/12/06 07:27:26;;;;;;;23.77;14.77;;;;;;;9.13;45.35;100355.13;4994006;28;20377;-79
2020/12/06 07:29:52;;;;;;;36.83;29.13;;;;;;;9.10;45.39;100362.00;4993627;28;20022;-79
2020/12/06 07:32:21;;;;;;;22.43;13.90;;;;;;;9.03;45.26;100360.84;4993263;28;20377;-78
2020/12/06 07:34:49;;;;;;;31.33;22.27;;;;;;;9.04;45.03;100359.72;4992753;28;20539;-79
2020/12/06 07:37:14;;;;;;;25.10;15.23;;;;;;;9.04;45.28;100360.53;4992780;28;20066;-79
2020/12/06 07:39:44;;;;;;;27.30;14.27;;;;;;;8.87;45.36;100372.13;4992959;28;20523;-81
2020/12/06 07:42:10;;;;;;;32.72;16.58;;;;;;;8.94;45.27;100365.44;4992968;28;20436;-79
2020/12/06 07:44:49;;;;;;;28.07;15.90;;;;;;;8.92;45.18;100363.03;4992526;28;20034;-77
2020/12/06 07:47:16;;;;;;;37.33;28.35;;;;;;;8.96;45.01;100364.00;4993351;28;20022;-77
2020/12/06 07:49:47;;;;;;;32.63;18.13;;;;;;;9.03;44.66;100366.28;4993236;28;20030;-80
2020/12/06 07:52:18;;;;;;;28.17;13.83;;;;;;;8.80;45.14;100363.59;4993465;28;20022;-78
2020/12/06 07:54:57;;;;;;;30.30;18.23;;;;;;;9.01;44.87;100368.53;4990064;28;20523;-79
2020/12/06 07:57:40;;;;;;;24.87;14.87;;;;;;;8.97;44.68;100365.63;4990500;28;20053;-77
2020/12/06 08:00:21;;;;;;;20.57;13.07;;;;;;;8.93;44.78;100375.53;4991735;28;20491;-79
2020/12/06 08:03:07;;;;;;;20.73;12.97;;;;;;;8.94;44.60;100368.97;4991634;28;20038;-78
2020/12/06 08:05:39;;;;;;;20.80;12.57;;;;;;;8.99;44.50;100377.00;4991453;28;20485;-79
2020/12/06 08:08:18;;;;;;;22.00;12.10;;;;;;;9.04;44.31;100376.09;4991260;28;20492;-78
2020/12/06 08:10:51;;;;;;;17.47;10.83;;;;;;;8.93;44.66;100383.72;4989988;28;20027;-78
2020/12/06 08:13:17;;;;;;;21.30;12.40;;;;;;;8.66;45.53;100381.91;4990743;28;20260;-78
2020/12/06 08:15:43;;;;;;;19.57;11.57;;;;;;;8.14;46.68;100381.41;4991104;28;20026;-78
2020/12/06 08:18:16;;;;;;;20.90;11.83;;;;;;;8.31;45.96;100378.88;4992144;28;20026;-79
2020/12/06 08:20:52;;;;;;;23.27;11.60;;;;;;;8.57;45.33;100375.59;4992750;28;20015;-78
2020/12/06 08:23:29;;;;;;;20.43;11.10;;;;;;;8.63;44.85;100379.00;4993199;28;20068;-80
2020/12/06 08:25:54;;;;;;;21.20;11.67;;;;;;;8.73;44.85;100378.75;4993298;28;20054;-77
2020/12/06 08:28:20;;;;;;;22.23;11.67;;;;;;;8.78;44.64;100376.72;4993384;28;20608;-77
2020/12/06 08:30:46;;;;;;;24.77;18.87;;;;;;;8.74;44.74;100372.19;4993172;28;20543;-77
2020/12/06 08:33:11;;;;;;;20.57;12.67;;;;;;;8.76;44.39;100384.38;4993147;28;20434;-80
2020/12/06 08:35:48;;;;;;;20.93;15.53;;;;;;;8.68;44.93;100378.88;4993126;28;20054;-78
2020/12/06 08:38:14;;;;;;;24.97;13.77;;;;;;;8.70;44.66;100376.66;4992837;28;20467;-79
2020/12/06 08:40:40;;;;;;;25.27;13.70;;;;;;;8.57;44.62;100383.75;4993236;28;20039;-84
2020/12/06 08:43:05;;;;;;;26.93;14.67;;;;;;;8.57;44.90;100391.94;4975749;28;20038;-80
2020/12/06 08:45:31;;;;;;;19.40;12.17;;;;;;;8.51;44.92;100384.97;4975599;28;20031;-79
2020/12/06 08:47:56;;;;;;;19.37;11.97;;;;;;;8.72;43.89;100377.16;4992956;28;20039;-79
2020/12/06 08:50:22;;;;;;;27.80;11.90;;;;;;;8.65;44.18;100382.22;4994411;28;20027;-93
2020/12/06 08:52:55;;;;;;;28.30;13.00;;;;;;;8.49;44.77;100387.22;4993109;28;20031;-81
2020/12/06 08:55:36;;;;;;;25.23;12.37;;;;;;;8.04;45.45;100377.00;4993740;28;20027;-81
2020/12/06 08:58:02;;;;;;;28.23;13.20;;;;;;;8.43;44.77;100381.06;4997399;28;20110;-79
2020/12/06 09:00:28;;;;;;;30.63;15.40;;;;;;;8.34;44.71;100378.25;4996520;28;20537;-78
2020/12/06 09:02:56;;;;;;;30.97;16.23;;;;;;;8.61;44.28;100379.28;4996741;28;20054;-81
2020/12/06 09:05:22;;;;;;;31.07;15.50;;;;;;;8.27;45.07;100372.41;4996802;28;20081;-80
2020/12/06 09:07:48;;;;;;;29.93;15.43;;;;;;;8.53;44.27;100371.84;4996020;28;20113;-80
2020/12/06 09:10:13;;;;;;;36.13;15.80;;;;;;;8.24;45.02;100378.50;4995066;28;20035;-82
2020/12/06 09:12:39;;;;;;;35.27;17.23;;;;;;;8.27;44.84;100383.31;4995032;28;20117;-81
2020/12/06 09:15:06;;;;;;;35.60;15.97;;;;;;;8.22;44.99;100379.88;4995861;28;20027;-79
2020/12/06 09:17:33;;;;;;;35.00;15.10;;;;;;;7.99;45.48;100387.97;4995606;28;20106;-78
2020/12/06 09:19:59;;;;;;;39.53;17.87;;;;;;;8.31;44.61;100384.31;4996584;28;20045;-79
2020/12/06 09:22:24;;;;;;;35.60;17.13;;;;;;;8.25;44.86;100393.69;4995821;28;20038;-81
2020/12/06 09:24:50;;;;;;;35.17;16.67;;;;;;;8.65;43.58;100383.03;4996385;28;20117;-79
2020/12/06 09:27:15;;;;;;;129.57;45.10;;;;;;;8.58;44.01;100380.72;4996308;28;20033;-80
2020/12/06 09:29:41;;;;;;;36.83;14.63;;;;;;;8.41;44.44;100371.63;4996692;28;20038;-80
2020/12/06 09:32:06;;;;;;;35.57;15.23;;;;;;;8.46;44.26;100371.47;4994980;28;20469;-78
2020/12/06 09:34:32;;;;;;;34.70;15.83;;;;;;;8.29;44.58;100375.63;4996283;28;20045;-84
2020/12/06 09:36:57;;;;;;;236.17;77.23;;;;;;;8.39;44.10;100380.09;4995531;28;20026;-79
2020/12/06 09:39:23;;;;;;;175.83;60.10;;;;;;;8.34;44.46;100375.53;4996437;28;20030;-78
2020/12/06 09:41:49;;;;;;;85.57;34.37;;;;;;;8.37;44.82;100386.94;4996058;28;20085;-81
2020/12/06 09:44:14;;;;;;;34.57;17.47;;;;;;;8.50;44.61;100375.22;4996096;28;20088;-79
2020/12/06 09:46:40;;;;;;;44.93;22.47;;;;;;;8.81;43.92;100373.38;4996264;28;20126;-78
2020/12/06 09:49:05;;;;;;;113.90;39.03;;;;;;;8.63;44.21;100376.28;4995952;28;20046;-80
2020/12/06 09:51:31;;;;;;;66.90;28.73;;;;;;;8.91;43.48;100372.31;4995978;28;20030;-79
2020/12/06 09:53:56;;;;;;;41.13;17.80;;;;;;;8.94;43.81;100379.88;4996386;28;20045;-82
2020/12/06 09:56:27;;;;;;;63.20;26.00;;;;;;;8.90;43.58;100382.41;4995787;28;20030;-78
2020/12/06 09:58:52;;;;;;;127.67;52.03;;;;;;;8.88;43.96;100379.19;4995847;28;20034;-80
2020/12/06 10:01:18;;;;;;;50.27;23.23;;;;;;;8.86;43.96;100377.91;4996021;28;20026;-80
2020/12/06 10:03:43;;;;;;;46.10;22.40;;;;;;;9.02;43.69;100381.84;4995720;28;20034;-78
2020/12/06 10:06:09;;;;;;;43.43;19.67;;;;;;;9.11;43.63;100379.97;4996259;28;20050;-80
2020/12/06 10:08:34;;;;;;;66.33;26.77;;;;;;;9.18;43.49;100379.53;4995406;28;20507;-80
2020/12/06 10:11:00;;;;;;;181.63;75.00;;;;;;;9.06;43.77;100384.75;4996249;28;20057;-81
2020/12/06 10:13:25;;;;;;;44.97;21.17;;;;;;;8.90;44.16;100390.56;4995689;28;20022;-80
2020/12/06 10:15:51;;;;;;;34.07;15.63;;;;;;;8.79;44.82;100385.69;4995731;28;20105;-78
2020/12/06 10:18:17;;;;;;;77.87;30.70;;;;;;;8.65;44.76;100388.47;4995980;28;20104;-78
2020/12/06 10:20:42;;;;;;;33.30;15.33;;;;;;;8.19;45.92;100394.13;4995933;28;20026;-78
2020/12/06 10:23:08;;;;;;;41.73;18.00;;;;;;;8.38;45.88;100399.44;4995248;28;20413;-78
2020/12/06 10:25:34;;;;;;;70.73;27.03;;;;;;;8.49;45.43;100396.19;4995193;28;20385;-81
2020/12/06 10:27:59;;;;;;;48.07;20.67;;;;;;;8.57;45.34;100398.19;4995679;28;20018;-78
2020/12/06 10:30:25;;;;;;;107.13;36.40;;;;;;;8.65;45.13;100401.28;4995393;28;20030;-81
2020/12/06 10:32:50;;;;;;;54.67;21.33;;;;;;;8.70;45.06;100401.19;4995085;28;20033;-80
2020/12/06 10:35:16;;;;;;;120.80;41.87;;;;;;;8.82;44.57;100399.50;4995216;28;20030;-81
2020/12/06 10:37:41;;;;;;;70.07;26.63;;;;;;;8.88;44.73;100403.72;4994996;28;20058;-78
2020/12/06 10:40:07;;;;;;;40.37;19.03;;;;;;;8.95;44.70;100405.19;4995349;28;20034;-81
2020/12/06 10:42:33;;;;;;;37.60;17.60;;;;;;;8.91;44.73;100407.72;4994978;28;20034;-78
2020/12/06 10:44:58;;;;;;;33.50;15.50;;;;;;;9.06;44.24;100399.16;4994922;28;20030;-75
2020/12/06 10:47:24;;;;;;;40.90;21.30;;;;;;;9.03;44.11;100401.72;4995405;28;20032;-76
2020/12/06 10:49:50;;;;;;;35.83;16.77;;;;;;;9.03;44.37;100396.28;4995002;28;20026;-75
2020/12/06 10:52:15;;;;;;;36.40;15.83;;;;;;;8.96;44.69;100399.44;4995079;28;20405;-78
2020/12/06 10:54:41;;;;;;;35.43;17.00;;;;;;;8.99;44.33;100401.53;4994842;28;20053;-79
2020/12/06 10:57:07;;;;;;;31.77;17.10;;;;;;;9.15;44.02;100391.88;4994899;28;20084;-75
2020/12/06 10:59:35;;;;;;;34.20;17.97;;;;;;;9.04;44.55;100404.13;4994811;28;20029;-78
2020/12/06 11:02:02;;;;;;;30.70;17.17;;;;;;;9.09;44.27;100406.75;4995000;28;20028;-77
2020/12/06 11:04:27;;;;;;;36.57;16.30;;;;;;;8.65;45.46;100388.47;4994473;28;20058;-75
2020/12/06 11:06:57;;;;;;;41.10;20.17;;;;;;;9.03;44.38;100405.25;4994705;28;20057;-78
2020/12/06 11:09:22;;;;;;;41.50;20.75;;;;;;;8.85;45.32;100398.09;4994555;28;20531;-76
2020/12/06 11:11:51;;;;;;;45.70;21.57;;;;;;;8.76;45.70;100395.28;4994407;28;20034;-79
2020/12/06 11:14:19;;;;;;;43.23;21.97;;;;;;;8.73;45.94;100390.44;4994459;28;20026;-76